Terminal Aerodrome Forecast
Issued by NWS

Home | Current Version | Previous Version | Text Only | Print | Product List | Glossary On
Versions: 1 2 3 4 5 6 7 8 9 10 11 12 13 14 15 16 17
000
FTUS41 KPBZ 200347 AAA
TAFZZV
TAF AMD
KZZV 200347Z 2004/2024 00000KT 1 1/2SM BR SKC
     FM200600 00000KT 1SM BR SCT005
     FM200800 00000KT 3/4SM BR SCT003
     FM201400 VRB03KT 2SM BR SCT005
     FM201600 VRB03KT P6SM BKN250=

USA.gov is the U.S. government's official web portal to all federal, state and local government web resources and services.